sensor_id;sensor_type;location;lat;lon;timestamp;P1;durP1;ratioP1;P2;durP2;ratioP2
31638;SDS011;18248;51.522;7.020;2022-09-17T00:02:56;11.85;;;3.38;;
31638;SDS011;18248;51.522;7.020;2022-09-17T00:06:03;22.50;;;4.22;;
31638;SDS011;18248;51.522;7.020;2022-09-17T00:09:06;17.08;;;3.45;;
31638;SDS011;18248;51.522;7.020;2022-09-17T00:12:05;19.38;;;3.78;;
31638;SDS011;18248;51.522;7.020;2022-09-17T00:15:04;22.20;;;3.88;;
31638;SDS011;18248;51.522;7.020;2022-09-17T00:18:03;23.17;;;4.38;;
31638;SDS011;18248;51.522;7.020;2022-09-17T00:21:01;24.83;;;3.83;;
31638;SDS011;18248;51.522;7.020;2022-09-17T00:24:02;12.02;;;3.05;;
31638;SDS011;18248;51.522;7.020;2022-09-17T00:27:02;16.83;;;3.45;;
31638;SDS011;18248;51.522;7.020;2022-09-17T00:30:01;16.52;;;3.42;;
31638;SDS011;18248;51.522;7.020;2022-09-17T00:33:00;21.13;;;3.47;;
31638;SDS011;18248;51.522;7.020;2022-09-17T00:35:59;17.50;;;2.90;;
31638;SDS011;18248;51.522;7.020;2022-09-17T00:38:59;13.73;;;2.80;;
31638;SDS011;18248;51.522;7.020;2022-09-17T00:41:58;10.93;;;3.25;;
31638;SDS011;18248;51.522;7.020;2022-09-17T00:44:57;19.48;;;4.18;;
31638;SDS011;18248;51.522;7.020;2022-09-17T00:47:59;13.43;;;3.40;;
31638;SDS011;18248;51.522;7.020;2022-09-17T00:51:00;19.90;;;3.10;;
31638;SDS011;18248;51.522;7.020;2022-09-17T00:54:00;11.80;;;2.58;;
31638;SDS011;18248;51.522;7.020;2022-09-17T00:57:01;18.67;;;3.55;;
31638;SDS011;18248;51.522;7.020;2022-09-17T00:59:59;21.67;;;3.40;;
31638;SDS011;18248;51.522;7.020;2022-09-17T01:02:59;20.63;;;3.40;;
31638;SDS011;18248;51.522;7.020;2022-09-17T01:15:50;16.55;;;3.28;;
31638;SDS011;18248;51.522;7.020;2022-09-17T01:25:37;20.95;;;4.10;;
31638;SDS011;18248;51.522;7.020;2022-09-17T01:28:51;21.77;;;3.95;;
31638;SDS011;18248;51.522;7.020;2022-09-17T01:32:11;18.45;;;3.97;;
31638;SDS011;18248;51.522;7.020;2022-09-17T01:35:23;23.50;;;4.38;;
31638;SDS011;18248;51.522;7.020;2022-09-17T01:38:31;28.98;;;4.40;;
31638;SDS011;18248;51.522;7.020;2022-09-17T01:45:03;25.90;;;3.95;;
31638;SDS011;18248;51.522;7.020;2022-09-17T01:48:10;19.08;;;3.63;;
31638;SDS011;18248;51.522;7.020;2022-09-17T01:51:16;17.85;;;3.63;;
31638;SDS011;18248;51.522;7.020;2022-09-17T01:54:21;26.65;;;4.35;;
31638;SDS011;18248;51.522;7.020;2022-09-17T01:57:31;26.55;;;4.25;;
31638;SDS011;18248;51.522;7.020;2022-09-17T02:00:38;16.27;;;3.53;;
31638;SDS011;18248;51.522;7.020;2022-09-17T02:03:48;22.90;;;4.32;;
31638;SDS011;18248;51.522;7.020;2022-09-17T02:09:59;23.55;;;3.95;;
31638;SDS011;18248;51.522;7.020;2022-09-17T02:13:18;23.33;;;4.82;;
31638;SDS011;18248;51.522;7.020;2022-09-17T02:16:26;27.42;;;3.83;;
31638;SDS011;18248;51.522;7.020;2022-09-17T02:19:28;22.48;;;3.78;;
31638;SDS011;18248;51.522;7.020;2022-09-17T02:22:31;27.33;;;4.72;;
31638;SDS011;18248;51.522;7.020;2022-09-17T02:25:57;20.40;;;3.58;;
31638;SDS011;18248;51.522;7.020;2022-09-17T02:29:04;21.90;;;3.70;;
31638;SDS011;18248;51.522;7.020;2022-09-17T02:32:07;20.65;;;4.05;;
31638;SDS011;18248;51.522;7.020;2022-09-17T02:35:06;24.15;;;3.60;;
31638;SDS011;18248;51.522;7.020;2022-09-17T02:38:06;24.42;;;4.50;;
31638;SDS011;18248;51.522;7.020;2022-09-17T02:41:06;22.50;;;4.07;;
31638;SDS011;18248;51.522;7.020;2022-09-17T02:47:22;25.25;;;3.95;;
31638;SDS011;18248;51.522;7.020;2022-09-17T02:54:17;24.65;;;3.78;;
31638;SDS011;18248;51.522;7.020;2022-09-17T02:57:26;23.50;;;4.20;;
31638;SDS011;18248;51.522;7.020;2022-09-17T03:00:31;22.02;;;3.80;;
31638;SDS011;18248;51.522;7.020;2022-09-17T03:03:34;27.42;;;3.05;;
31638;SDS011;18248;51.522;7.020;2022-09-17T03:06:36;25.25;;;3.90;;
31638;SDS011;18248;51.522;7.020;2022-09-17T03:09:37;26.33;;;4.32;;
31638;SDS011;18248;51.522;7.020;2022-09-17T03:12:35;17.77;;;3.70;;
31638;SDS011;18248;51.522;7.020;2022-09-17T03:15:34;18.58;;;3.10;;
31638;SDS011;18248;51.522;7.020;2022-09-17T03:18:33;20.92;;;3.22;;
31638;SDS011;18248;51.522;7.020;2022-09-17T03:21:31;22.23;;;3.15;;
31638;SDS011;18248;51.522;7.020;2022-09-17T03:24:31;21.52;;;4.22;;
31638;SDS011;18248;51.522;7.020;2022-09-17T03:27:29;26.38;;;4.88;;
31638;SDS011;18248;51.522;7.020;2022-09-17T03:30:28;17.35;;;3.13;;
31638;SDS011;18248;51.522;7.020;2022-09-17T03:33:26;18.60;;;3.17;;
31638;SDS011;18248;51.522;7.020;2022-09-17T03:36:25;18.15;;;3.53;;
31638;SDS011;18248;51.522;7.020;2022-09-17T03:39:24;22.05;;;3.60;;
31638;SDS011;18248;51.522;7.020;2022-09-17T03:42:22;19.02;;;3.55;;
31638;SDS011;18248;51.522;7.020;2022-09-17T03:45:21;20.52;;;3.65;;
31638;SDS011;18248;51.522;7.020;2022-09-17T03:48:20;19.45;;;3.50;;
31638;SDS011;18248;51.522;7.020;2022-09-17T03:51:19;14.88;;;2.92;;
31638;SDS011;18248;51.522;7.020;2022-09-17T03:54:17;18.95;;;3.22;;
31638;SDS011;18248;51.522;7.020;2022-09-17T03:57:16;22.70;;;3.40;;
31638;SDS011;18248;51.522;7.020;2022-09-17T04:00:15;19.42;;;3.33;;
31638;SDS011;18248;51.522;7.020;2022-09-17T04:03:15;18.75;;;4.05;;
31638;SDS011;18248;51.522;7.020;2022-09-17T04:06:13;19.30;;;3.05;;
31638;SDS011;18248;51.522;7.020;2022-09-17T04:09:12;17.92;;;2.88;;
31638;SDS011;18248;51.522;7.020;2022-09-17T04:12:10;14.23;;;2.55;;
31638;SDS011;18248;51.522;7.020;2022-09-17T04:15:09;17.17;;;2.72;;
31638;SDS011;18248;51.522;7.020;2022-09-17T04:18:08;21.25;;;3.25;;
31638;SDS011;18248;51.522;7.020;2022-09-17T04:21:06;13.55;;;2.75;;
31638;SDS011;18248;51.522;7.020;2022-09-17T04:24:06;12.23;;;2.33;;
31638;SDS011;18248;51.522;7.020;2022-09-17T04:27:05;19.15;;;3.42;;
31638;SDS011;18248;51.522;7.020;2022-09-17T04:30:04;15.20;;;2.63;;
31638;SDS011;18248;51.522;7.020;2022-09-17T04:33:03;17.50;;;2.50;;
31638;SDS011;18248;51.522;7.020;2022-09-17T04:36:02;16.02;;;2.60;;
31638;SDS011;18248;51.522;7.020;2022-09-17T04:39:00;17.48;;;2.70;;
31638;SDS011;18248;51.522;7.020;2022-09-17T04:41:59;16.88;;;3.42;;
31638;SDS011;18248;51.522;7.020;2022-09-17T04:44:59;19.27;;;3.40;;
31638;SDS011;18248;51.522;7.020;2022-09-17T04:47:57;16.27;;;2.90;;
31638;SDS011;18248;51.522;7.020;2022-09-17T04:50:56;27.70;;;3.97;;
31638;SDS011;18248;51.522;7.020;2022-09-17T04:53:54;14.30;;;3.42;;
31638;SDS011;18248;51.522;7.020;2022-09-17T04:56:53;19.25;;;2.80;;
31638;SDS011;18248;51.522;7.020;2022-09-17T04:59:51;17.35;;;3.03;;
31638;SDS011;18248;51.522;7.020;2022-09-17T05:02:51;17.38;;;2.90;;
31638;SDS011;18248;51.522;7.020;2022-09-17T05:05:51;15.07;;;2.55;;
31638;SDS011;18248;51.522;7.020;2022-09-17T05:08:50;20.10;;;2.85;;
31638;SDS011;18248;51.522;7.020;2022-09-17T05:11:48;15.93;;;3.00;;
31638;SDS011;18248;51.522;7.020;2022-09-17T05:14:47;19.20;;;2.30;;
31638;SDS011;18248;51.522;7.020;2022-09-17T05:17:45;18.35;;;2.67;;
31638;SDS011;18248;51.522;7.020;2022-09-17T05:20:44;17.83;;;2.70;;
31638;SDS011;18248;51.522;7.020;2022-09-17T05:23:42;13.07;;;2.13;;
31638;SDS011;18248;51.522;7.020;2022-09-17T05:26:42;14.68;;;2.17;;
31638;SDS011;18248;51.522;7.020;2022-09-17T05:29:41;20.00;;;2.80;;
31638;SDS011;18248;51.522;7.020;2022-09-17T05:32:39;21.52;;;3.55;;
31638;SDS011;18248;51.522;7.020;2022-09-17T05:35:38;22.83;;;3.33;;
31638;SDS011;18248;51.522;7.020;2022-09-17T05:38:37;16.90;;;3.30;;
31638;SDS011;18248;51.522;7.020;2022-09-17T05:41:36;15.05;;;2.60;;
31638;SDS011;18248;51.522;7.020;2022-09-17T05:44:34;24.38;;;4.10;;
31638;SDS011;18248;51.522;7.020;2022-09-17T05:47:33;27.77;;;4.50;;
31638;SDS011;18248;51.522;7.020;2022-09-17T05:50:32;22.63;;;3.80;;
31638;SDS011;18248;51.522;7.020;2022-09-17T05:53:30;14.05;;;3.22;;
31638;SDS011;18248;51.522;7.020;2022-09-17T05:56:29;21.38;;;3.70;;
31638;SDS011;18248;51.522;7.020;2022-09-17T05:59:28;13.95;;;2.70;;
31638;SDS011;18248;51.522;7.020;2022-09-17T06:02:27;15.60;;;3.90;;
31638;SDS011;18248;51.522;7.020;2022-09-17T06:05:25;23.08;;;3.33;;
31638;SDS011;18248;51.522;7.020;2022-09-17T06:08:24;15.45;;;3.00;;
31638;SDS011;18248;51.522;7.020;2022-09-17T06:11:24;17.65;;;2.83;;
31638;SDS011;18248;51.522;7.020;2022-09-17T06:14:22;12.48;;;2.70;;
31638;SDS011;18248;51.522;7.020;2022-09-17T06:17:21;15.00;;;2.72;;
31638;SDS011;18248;51.522;7.020;2022-09-17T06:20:20;16.98;;;2.75;;
31638;SDS011;18248;51.522;7.020;2022-09-17T06:23:18;21.45;;;3.08;;
31638;SDS011;18248;51.522;7.020;2022-09-17T06:26:17;19.17;;;3.38;;
31638;SDS011;18248;51.522;7.020;2022-09-17T06:29:16;19.38;;;2.92;;
31638;SDS011;18248;51.522;7.020;2022-09-17T06:32:14;17.17;;;3.22;;
31638;SDS011;18248;51.522;7.020;2022-09-17T06:35:14;19.42;;;2.88;;
31638;SDS011;18248;51.522;7.020;2022-09-17T06:38:12;16.60;;;2.60;;
31638;SDS011;18248;51.522;7.020;2022-09-17T06:41:11;18.08;;;3.10;;
31638;SDS011;18248;51.522;7.020;2022-09-17T06:44:11;14.50;;;2.35;;
31638;SDS011;18248;51.522;7.020;2022-09-17T06:47:10;20.00;;;3.28;;
31638;SDS011;18248;51.522;7.020;2022-09-17T06:50:08;17.13;;;5.22;;
31638;SDS011;18248;51.522;7.020;2022-09-17T06:53:07;25.17;;;8.88;;
31638;SDS011;18248;51.522;7.020;2022-09-17T06:56:07;58.67;;;23.92;;
31638;SDS011;18248;51.522;7.020;2022-09-17T06:59:07;111.82;;;47.13;;
31638;SDS011;18248;51.522;7.020;2022-09-17T07:02:07;77.90;;;25.50;;
31638;SDS011;18248;51.522;7.020;2022-09-17T07:05:07;26.73;;;8.50;;
31638;SDS011;18248;51.522;7.020;2022-09-17T07:08:06;19.52;;;4.43;;
31638;SDS011;18248;51.522;7.020;2022-09-17T07:11:05;15.23;;;3.42;;
31638;SDS011;18248;51.522;7.020;2022-09-17T07:14:05;25.67;;;4.00;;
31638;SDS011;18248;51.522;7.020;2022-09-17T07:17:04;14.98;;;2.85;;
31638;SDS011;18248;51.522;7.020;2022-09-17T07:20:02;21.23;;;4.00;;
31638;SDS011;18248;51.522;7.020;2022-09-17T07:23:01;20.75;;;3.70;;
31638;SDS011;18248;51.522;7.020;2022-09-17T07:26:08;22.55;;;3.75;;
31638;SDS011;18248;51.522;7.020;2022-09-17T07:29:10;19.98;;;3.67;;
31638;SDS011;18248;51.522;7.020;2022-09-17T07:32:09;18.27;;;3.30;;
31638;SDS011;18248;51.522;7.020;2022-09-17T07:35:07;19.60;;;5.50;;
31638;SDS011;18248;51.522;7.020;2022-09-17T07:38:06;49.88;;;17.27;;
31638;SDS011;18248;51.522;7.020;2022-09-17T07:41:09;36.28;;;13.00;;
31638;SDS011;18248;51.522;7.020;2022-09-17T07:44:12;31.40;;;8.95;;
31638;SDS011;18248;51.522;7.020;2022-09-17T07:47:11;20.75;;;4.78;;
31638;SDS011;18248;51.522;7.020;2022-09-17T07:50:09;107.45;;;37.38;;
31638;SDS011;18248;51.522;7.020;2022-09-17T07:53:08;34.72;;;11.32;;
31638;SDS011;18248;51.522;7.020;2022-09-17T07:56:07;17.27;;;2.88;;
31638;SDS011;18248;51.522;7.020;2022-09-17T07:59:05;13.30;;;2.50;;
31638;SDS011;18248;51.522;7.020;2022-09-17T08:02:05;11.93;;;2.58;;
31638;SDS011;18248;51.522;7.020;2022-09-17T08:05:09;10.45;;;2.47;;
31638;SDS011;18248;51.522;7.020;2022-09-17T08:08:07;10.68;;;2.00;;
31638;SDS011;18248;51.522;7.020;2022-09-17T08:11:10;8.07;;;1.60;;
31638;SDS011;18248;51.522;7.020;2022-09-17T08:14:13;16.00;;;5.32;;
31638;SDS011;18248;51.522;7.020;2022-09-17T08:17:13;15.80;;;5.07;;
31638;SDS011;18248;51.522;7.020;2022-09-17T08:20:12;64.65;;;24.60;;
31638;SDS011;18248;51.522;7.020;2022-09-17T08:23:11;22.02;;;6.93;;
31638;SDS011;18248;51.522;7.020;2022-09-17T08:26:13;9.40;;;2.25;;
31638;SDS011;18248;51.522;7.020;2022-09-17T08:29:17;17.00;;;2.22;;
31638;SDS011;18248;51.522;7.020;2022-09-17T08:32:16;11.23;;;2.78;;
31638;SDS011;18248;51.522;7.020;2022-09-17T08:35:15;17.63;;;4.72;;
31638;SDS011;18248;51.522;7.020;2022-09-17T08:38:13;13.60;;;3.42;;
31638;SDS011;18248;51.522;7.020;2022-09-17T08:41:31;18.45;;;5.40;;
31638;SDS011;18248;51.522;7.020;2022-09-17T08:44:37;7.35;;;1.80;;
31638;SDS011;18248;51.522;7.020;2022-09-17T08:47:38;12.38;;;1.75;;
31638;SDS011;18248;51.522;7.020;2022-09-17T08:50:40;15.77;;;2.25;;
31638;SDS011;18248;51.522;7.020;2022-09-17T08:53:56;13.95;;;2.05;;
31638;SDS011;18248;51.522;7.020;2022-09-17T08:57:40;11.70;;;2.03;;
31638;SDS011;18248;51.522;7.020;2022-09-17T09:00:37;11.60;;;1.83;;
31638;SDS011;18248;51.522;7.020;2022-09-17T09:04:03;10.32;;;1.50;;
31638;SDS011;18248;51.522;7.020;2022-09-17T09:07:17;9.35;;;1.40;;
31638;SDS011;18248;51.522;7.020;2022-09-17T09:10:24;13.63;;;1.75;;
31638;SDS011;18248;51.522;7.020;2022-09-17T09:13:26;13.68;;;1.60;;
31638;SDS011;18248;51.522;7.020;2022-09-17T09:19:31;7.47;;;1.55;;
31638;SDS011;18248;51.522;7.020;2022-09-17T09:22:48;6.05;;;1.33;;
31638;SDS011;18248;51.522;7.020;2022-09-17T09:25:52;11.23;;;2.00;;
31638;SDS011;18248;51.522;7.020;2022-09-17T09:29:39;13.30;;;2.20;;
31638;SDS011;18248;51.522;7.020;2022-09-17T09:35:30;6.90;;;1.60;;
31638;SDS011;18248;51.522;7.020;2022-09-17T09:41:43;7.78;;;1.42;;
31638;SDS011;18248;51.522;7.020;2022-09-17T09:44:46;8.93;;;1.50;;
31638;SDS011;18248;51.522;7.020;2022-09-17T09:51:17;7.10;;;1.38;;
31638;SDS011;18248;51.522;7.020;2022-09-17T09:57:46;6.25;;;1.40;;
31638;SDS011;18248;51.522;7.020;2022-09-17T10:00:47;4.88;;;1.98;;
31638;SDS011;18248;51.522;7.020;2022-09-17T10:03:46;8.45;;;1.70;;
31638;SDS011;18248;51.522;7.020;2022-09-17T10:06:50;42.63;;;18.88;;
31638;SDS011;18248;51.522;7.020;2022-09-17T10:09:50;12.82;;;4.78;;
31638;SDS011;18248;51.522;7.020;2022-09-17T10:13:09;10.15;;;2.03;;
31638;SDS011;18248;51.522;7.020;2022-09-17T10:16:18;7.30;;;1.42;;
31638;SDS011;18248;51.522;7.020;2022-09-17T10:19:25;8.52;;;1.40;;
31638;SDS011;18248;51.522;7.020;2022-09-17T10:22:33;5.88;;;1.15;;
31638;SDS011;18248;51.522;7.020;2022-09-17T10:25:33;3.60;;;1.13;;
31638;SDS011;18248;51.522;7.020;2022-09-17T10:28:46;5.32;;;0.80;;
31638;SDS011;18248;51.522;7.020;2022-09-17T10:31:56;7.50;;;1.10;;
31638;SDS011;18248;51.522;7.020;2022-09-17T10:35:04;6.25;;;0.93;;
31638;SDS011;18248;51.522;7.020;2022-09-17T10:38:28;4.32;;;0.70;;
31638;SDS011;18248;51.522;7.020;2022-09-17T10:41:37;6.82;;;0.80;;
31638;SDS011;18248;51.522;7.020;2022-09-17T10:45:23;4.88;;;0.65;;
31638;SDS011;18248;51.522;7.020;2022-09-17T10:48:35;9.93;;;1.48;;
31638;SDS011;18248;51.522;7.020;2022-09-17T10:51:38;8.95;;;1.25;;
31638;SDS011;18248;51.522;7.020;2022-09-17T11:01:17;4.90;;;0.90;;
31638;SDS011;18248;51.522;7.020;2022-09-17T11:04:41;7.20;;;1.60;;
31638;SDS011;18248;51.522;7.020;2022-09-17T11:08:18;8.43;;;1.50;;
31638;SDS011;18248;51.522;7.020;2022-09-17T11:15:53;4.97;;;1.20;;
31638;SDS011;18248;51.522;7.020;2022-09-17T11:18:53;13.02;;;3.95;;
31638;SDS011;18248;51.522;7.020;2022-09-17T11:22:39;12.27;;;4.43;;
31638;SDS011;18248;51.522;7.020;2022-09-17T11:29:06;6.28;;;2.53;;
31638;SDS011;18248;51.522;7.020;2022-09-17T11:32:24;17.85;;;4.90;;
31638;SDS011;18248;51.522;7.020;2022-09-17T11:35:46;9.77;;;3.25;;
31638;SDS011;18248;51.522;7.020;2022-09-17T11:38:48;4.75;;;1.23;;
31638;SDS011;18248;51.522;7.020;2022-09-17T11:41:48;4.25;;;1.30;;
31638;SDS011;18248;51.522;7.020;2022-09-17T11:45:33;3.20;;;0.90;;
31638;SDS011;18248;51.522;7.020;2022-09-17T11:52:14;8.45;;;2.40;;
31638;SDS011;18248;51.522;7.020;2022-09-17T11:55:22;10.20;;;4.75;;
31638;SDS011;18248;51.522;7.020;2022-09-17T11:58:35;14.63;;;4.05;;
31638;SDS011;18248;51.522;7.020;2022-09-17T12:01:46;7.43;;;3.38;;
31638;SDS011;18248;51.522;7.020;2022-09-17T12:11:17;3.88;;;0.98;;
31638;SDS011;18248;51.522;7.020;2022-09-17T12:14:24;5.53;;;1.00;;
31638;SDS011;18248;51.522;7.020;2022-09-17T12:17:36;4.43;;;0.80;;
31638;SDS011;18248;51.522;7.020;2022-09-17T12:20:40;5.93;;;1.20;;
31638;SDS011;18248;51.522;7.020;2022-09-17T12:23:47;4.55;;;0.80;;
31638;SDS011;18248;51.522;7.020;2022-09-17T12:27:02;8.15;;;1.40;;
31638;SDS011;18248;51.522;7.020;2022-09-17T12:36:25;3.53;;;1.00;;
31638;SDS011;18248;51.522;7.020;2022-09-17T12:43:34;3.90;;;1.10;;
31638;SDS011;18248;51.522;7.020;2022-09-17T12:46:48;6.95;;;1.30;;
31638;SDS011;18248;51.522;7.020;2022-09-17T12:53:28;5.00;;;1.17;;
31638;SDS011;18248;51.522;7.020;2022-09-17T12:56:47;3.55;;;1.17;;
31638;SDS011;18248;51.522;7.020;2022-09-17T13:00:13;3.58;;;0.80;;
31638;SDS011;18248;51.522;7.020;2022-09-17T13:06:34;8.07;;;1.48;;
31638;SDS011;18248;51.522;7.020;2022-09-17T13:09:58;8.02;;;1.23;;
31638;SDS011;18248;51.522;7.020;2022-09-17T13:13:15;9.77;;;1.00;;
31638;SDS011;18248;51.522;7.020;2022-09-17T13:16:24;5.93;;;1.00;;
31638;SDS011;18248;51.522;7.020;2022-09-17T13:22:43;7.70;;;1.30;;
31638;SDS011;18248;51.522;7.020;2022-09-17T13:25:49;14.52;;;1.38;;
31638;SDS011;18248;51.522;7.020;2022-09-17T13:28:53;4.57;;;1.23;;
31638;SDS011;18248;51.522;7.020;2022-09-17T13:31:53;5.03;;;1.40;;
31638;SDS011;18248;51.522;7.020;2022-09-17T13:34:51;8.20;;;1.50;;
31638;SDS011;18248;51.522;7.020;2022-09-17T13:41:15;6.47;;;1.33;;
31638;SDS011;18248;51.522;7.020;2022-09-17T13:44:15;9.57;;;1.33;;
31638;SDS011;18248;51.522;7.020;2022-09-17T13:50:27;8.85;;;1.80;;
31638;SDS011;18248;51.522;7.020;2022-09-17T13:53:29;7.05;;;1.80;;
31638;SDS011;18248;51.522;7.020;2022-09-17T13:56:33;4.63;;;1.13;;
31638;SDS011;18248;51.522;7.020;2022-09-17T13:59:50;3.78;;;1.10;;
31638;SDS011;18248;51.522;7.020;2022-09-17T14:02:54;6.57;;;1.13;;
31638;SDS011;18248;51.522;7.020;2022-09-17T14:09:47;6.20;;;0.85;;
31638;SDS011;18248;51.522;7.020;2022-09-17T14:12:55;3.50;;;1.20;;
31638;SDS011;18248;51.522;7.020;2022-09-17T14:15:58;8.95;;;1.42;;
31638;SDS011;18248;51.522;7.020;2022-09-17T14:22:14;6.93;;;1.50;;
31638;SDS011;18248;51.522;7.020;2022-09-17T14:25:25;4.10;;;0.88;;
31638;SDS011;18248;51.522;7.020;2022-09-17T14:31:38;7.20;;;1.20;;
31638;SDS011;18248;51.522;7.020;2022-09-17T14:34:38;7.43;;;1.65;;
31638;SDS011;18248;51.522;7.020;2022-09-17T14:37:37;10.77;;;1.70;;
31638;SDS011;18248;51.522;7.020;2022-09-17T14:40:46;4.78;;;1.40;;
31638;SDS011;18248;51.522;7.020;2022-09-17T14:43:53;5.03;;;1.02;;
31638;SDS011;18248;51.522;7.020;2022-09-17T14:47:00;8.32;;;1.42;;
31638;SDS011;18248;51.522;7.020;2022-09-17T14:50:18;5.00;;;1.17;;
31638;SDS011;18248;51.522;7.020;2022-09-17T14:53:18;6.22;;;1.65;;
31638;SDS011;18248;51.522;7.020;2022-09-17T14:56:18;3.60;;;1.20;;
31638;SDS011;18248;51.522;7.020;2022-09-17T14:59:20;6.22;;;1.45;;
31638;SDS011;18248;51.522;7.020;2022-09-17T15:05:46;5.88;;;1.30;;
31638;SDS011;18248;51.522;7.020;2022-09-17T15:08:47;5.93;;;1.48;;
31638;SDS011;18248;51.522;7.020;2022-09-17T15:11:46;8.38;;;1.40;;
31638;SDS011;18248;51.522;7.020;2022-09-17T15:14:45;7.63;;;1.27;;
31638;SDS011;18248;51.522;7.020;2022-09-17T15:17:45;11.70;;;1.67;;
31638;SDS011;18248;51.522;7.020;2022-09-17T15:20:45;7.75;;;1.65;;
31638;SDS011;18248;51.522;7.020;2022-09-17T15:23:45;8.35;;;1.40;;
31638;SDS011;18248;51.522;7.020;2022-09-17T15:26:47;6.95;;;1.40;;
31638;SDS011;18248;51.522;7.020;2022-09-17T15:29:56;9.43;;;1.30;;
31638;SDS011;18248;51.522;7.020;2022-09-17T15:33:02;4.57;;;1.27;;
31638;SDS011;18248;51.522;7.020;2022-09-17T15:36:20;11.60;;;1.63;;
31638;SDS011;18248;51.522;7.020;2022-09-17T15:39:28;4.95;;;1.02;;
31638;SDS011;18248;51.522;7.020;2022-09-17T15:42:35;6.50;;;1.02;;
31638;SDS011;18248;51.522;7.020;2022-09-17T15:45:34;7.00;;;1.08;;
31638;SDS011;18248;51.522;7.020;2022-09-17T15:48:36;5.32;;;0.70;;
31638;SDS011;18248;51.522;7.020;2022-09-17T15:51:36;6.85;;;1.17;;
31638;SDS011;18248;51.522;7.020;2022-09-17T15:54:35;3.78;;;0.93;;
31638;SDS011;18248;51.522;7.020;2022-09-17T15:57:34;9.45;;;1.20;;
31638;SDS011;18248;51.522;7.020;2022-09-17T16:00:34;8.18;;;1.00;;
31638;SDS011;18248;51.522;7.020;2022-09-17T16:06:37;4.22;;;0.98;;
31638;SDS011;18248;51.522;7.020;2022-09-17T16:12:37;8.15;;;1.67;;
31638;SDS011;18248;51.522;7.020;2022-09-17T16:15:36;9.02;;;1.40;;
31638;SDS011;18248;51.522;7.020;2022-09-17T16:18:35;6.40;;;1.40;;
31638;SDS011;18248;51.522;7.020;2022-09-17T16:21:35;10.65;;;1.67;;
31638;SDS011;18248;51.522;7.020;2022-09-17T16:24:33;5.82;;;1.25;;
31638;SDS011;18248;51.522;7.020;2022-09-17T16:27:33;5.35;;;1.55;;
31638;SDS011;18248;51.522;7.020;2022-09-17T16:30:40;4.60;;;1.20;;
31638;SDS011;18248;51.522;7.020;2022-09-17T16:33:42;6.50;;;1.40;;
31638;SDS011;18248;51.522;7.020;2022-09-17T16:36:41;5.88;;;1.52;;
31638;SDS011;18248;51.522;7.020;2022-09-17T16:39:39;8.25;;;1.48;;
31638;SDS011;18248;51.522;7.020;2022-09-17T16:42:38;8.02;;;1.25;;
31638;SDS011;18248;51.522;7.020;2022-09-17T16:45:38;10.70;;;1.40;;
31638;SDS011;18248;51.522;7.020;2022-09-17T16:48:37;9.93;;;1.38;;
31638;SDS011;18248;51.522;7.020;2022-09-17T16:51:36;8.32;;;1.20;;
31638;SDS011;18248;51.522;7.020;2022-09-17T16:54:34;10.25;;;1.33;;
31638;SDS011;18248;51.522;7.020;2022-09-17T16:57:33;8.48;;;1.50;;
31638;SDS011;18248;51.522;7.020;2022-09-17T17:00:32;6.30;;;1.60;;
31638;SDS011;18248;51.522;7.020;2022-09-17T17:03:30;7.30;;;1.20;;
31638;SDS011;18248;51.522;7.020;2022-09-17T17:06:29;7.50;;;1.40;;
31638;SDS011;18248;51.522;7.020;2022-09-17T17:09:27;7.78;;;1.67;;
31638;SDS011;18248;51.522;7.020;2022-09-17T17:12:26;10.68;;;2.35;;
31638;SDS011;18248;51.522;7.020;2022-09-17T17:15:25;6.63;;;1.73;;
31638;SDS011;18248;51.522;7.020;2022-09-17T17:18:24;9.18;;;3.17;;
31638;SDS011;18248;51.522;7.020;2022-09-17T17:21:22;7.43;;;2.58;;
31638;SDS011;18248;51.522;7.020;2022-09-17T17:24:21;9.45;;;2.17;;
31638;SDS011;18248;51.522;7.020;2022-09-17T17:27:20;10.25;;;1.92;;
31638;SDS011;18248;51.522;7.020;2022-09-17T17:30:18;8.02;;;1.70;;
31638;SDS011;18248;51.522;7.020;2022-09-17T17:33:17;13.50;;;1.75;;
31638;SDS011;18248;51.522;7.020;2022-09-17T17:36:15;9.50;;;1.88;;
31638;SDS011;18248;51.522;7.020;2022-09-17T17:39:14;12.77;;;2.10;;
31638;SDS011;18248;51.522;7.020;2022-09-17T17:42:13;11.73;;;2.38;;
31638;SDS011;18248;51.522;7.020;2022-09-17T17:45:11;12.23;;;2.15;;
31638;SDS011;18248;51.522;7.020;2022-09-17T17:48:11;10.13;;;1.42;;
31638;SDS011;18248;51.522;7.020;2022-09-17T17:51:10;10.10;;;1.95;;
31638;SDS011;18248;51.522;7.020;2022-09-17T17:54:10;9.93;;;1.90;;
31638;SDS011;18248;51.522;7.020;2022-09-17T17:57:09;11.23;;;2.03;;
31638;SDS011;18248;51.522;7.020;2022-09-17T18:00:08;11.52;;;2.70;;
31638;SDS011;18248;51.522;7.020;2022-09-17T18:03:09;23.38;;;3.42;;
31638;SDS011;18248;51.522;7.020;2022-09-17T18:06:08;9.80;;;3.08;;
31638;SDS011;18248;51.522;7.020;2022-09-17T18:09:07;15.68;;;2.80;;
31638;SDS011;18248;51.522;7.020;2022-09-17T18:12:05;11.18;;;2.45;;
31638;SDS011;18248;51.522;7.020;2022-09-17T18:15:05;11.90;;;2.50;;
31638;SDS011;18248;51.522;7.020;2022-09-17T18:18:04;13.82;;;3.28;;
31638;SDS011;18248;51.522;7.020;2022-09-17T18:21:03;15.25;;;2.42;;
31638;SDS011;18248;51.522;7.020;2022-09-17T18:24:04;11.93;;;2.25;;
31638;SDS011;18248;51.522;7.020;2022-09-17T18:27:02;10.25;;;2.42;;
31638;SDS011;18248;51.522;7.020;2022-09-17T18:30:01;17.83;;;3.67;;
31638;SDS011;18248;51.522;7.020;2022-09-17T18:33:00;11.90;;;3.00;;
31638;SDS011;18248;51.522;7.020;2022-09-17T18:35:59;15.52;;;2.75;;
31638;SDS011;18248;51.522;7.020;2022-09-17T18:38:59;17.13;;;3.35;;
31638;SDS011;18248;51.522;7.020;2022-09-17T18:42:01;14.57;;;3.40;;
31638;SDS011;18248;51.522;7.020;2022-09-17T18:45:00;19.98;;;4.38;;
31638;SDS011;18248;51.522;7.020;2022-09-17T18:47:59;16.48;;;3.50;;
31638;SDS011;18248;51.522;7.020;2022-09-17T18:50:58;17.90;;;3.70;;
31638;SDS011;18248;51.522;7.020;2022-09-17T18:57:00;15.73;;;3.08;;
31638;SDS011;18248;51.522;7.020;2022-09-17T18:59:59;20.52;;;3.20;;
31638;SDS011;18248;51.522;7.020;2022-09-17T19:02:58;15.20;;;2.63;;
31638;SDS011;18248;51.522;7.020;2022-09-17T19:06:00;14.82;;;3.05;;
31638;SDS011;18248;51.522;7.020;2022-09-17T19:08:59;18.42;;;2.95;;
31638;SDS011;18248;51.522;7.020;2022-09-17T19:11:59;14.65;;;2.97;;
31638;SDS011;18248;51.522;7.020;2022-09-17T19:14:57;18.90;;;3.25;;
31638;SDS011;18248;51.522;7.020;2022-09-17T19:17:56;15.85;;;3.25;;
31638;SDS011;18248;51.522;7.020;2022-09-17T19:21:02;15.38;;;2.58;;
31638;SDS011;18248;51.522;7.020;2022-09-17T19:24:01;13.40;;;2.38;;
31638;SDS011;18248;51.522;7.020;2022-09-17T19:27:00;13.27;;;2.65;;
31638;SDS011;18248;51.522;7.020;2022-09-17T19:30:01;21.15;;;2.88;;
31638;SDS011;18248;51.522;7.020;2022-09-17T19:33:00;13.18;;;2.70;;
31638;SDS011;18248;51.522;7.020;2022-09-17T19:35:59;15.88;;;3.45;;
31638;SDS011;18248;51.522;7.020;2022-09-17T19:38:58;15.95;;;2.83;;
31638;SDS011;18248;51.522;7.020;2022-09-17T19:41:57;20.13;;;3.13;;
31638;SDS011;18248;51.522;7.020;2022-09-17T19:44:55;13.82;;;2.92;;
31638;SDS011;18248;51.522;7.020;2022-09-17T19:47:54;23.15;;;3.78;;
31638;SDS011;18248;51.522;7.020;2022-09-17T19:50:58;14.80;;;2.67;;
31638;SDS011;18248;51.522;7.020;2022-09-17T19:53:57;17.38;;;2.83;;
31638;SDS011;18248;51.522;7.020;2022-09-17T19:56:55;19.27;;;2.75;;
31638;SDS011;18248;51.522;7.020;2022-09-17T19:59:54;12.45;;;2.30;;
31638;SDS011;18248;51.522;7.020;2022-09-17T20:02:55;18.48;;;3.25;;
31638;SDS011;18248;51.522;7.020;2022-09-17T20:05:58;26.45;;;4.75;;
31638;SDS011;18248;51.522;7.020;2022-09-17T20:09:01;18.05;;;3.75;;
31638;SDS011;18248;51.522;7.020;2022-09-17T20:12:00;12.30;;;2.90;;